Clarkston, Michigan
Current Conditions -  °F | °C
As of 12:53 PM on Thursday 30 Oct 2014 (Local Time) from KPTK Reporting Station
Overcast Overcast  
Wind Chill: 43°   Ceiling: 4000
Heat Index: 47°   Visibility: 10mi
Dew Point: 33°   Wind: 8mph
Humidity: 59%   Direction: 290°WNW
Pressure: 30.11"   Gusts: NA
Location:  42.74°N, 83.42°W
Report Text: KPTK 301653Z 29007KT 10SM FEW025 BKN040 OVC070 08/01 A3011 RMK AO2 SLP200 T00830006
Loading
Personal Weather Stations






























Interactive Weather Map
Tropical Storm Tracking
New forecast layout! Learn more

10-Day Weather Forecast

Advertisements
Track Severe Weather on mobile